createdAt,value
2019-03-17T00:00:25.360Z,39.60
2019-03-17T00:02:55.624Z,43.97
2019-03-17T00:05:25.838Z,40.53
2019-03-17T00:07:56.113Z,43.80
2019-03-17T00:10:26.407Z,50.57
2019-03-17T00:12:56.734Z,50.03
2019-03-17T00:15:27.300Z,46.00
2019-03-17T00:17:57.564Z,53.30
2019-03-17T00:20:27.824Z,48.97
2019-03-17T00:22:58.082Z,46.90
2019-03-17T00:25:28.347Z,52.13
2019-03-17T00:27:58.538Z,59.47
2019-03-17T00:30:28.737Z,56.13
2019-03-17T00:32:59.011Z,54.50
2019-03-17T00:35:29.222Z,60.80
2019-03-17T00:37:59.502Z,54.10
2019-03-17T00:40:29.775Z,53.70
2019-03-17T00:43:00.006Z,61.57
2019-03-17T00:45:30.363Z,54.33
2019-03-17T00:48:00.627Z,55.23
2019-03-17T00:50:30.867Z,51.43
2019-03-17T00:53:01.158Z,52.87
2019-03-17T00:55:31.656Z,51.23
2019-03-17T00:58:02.857Z,54.73
2019-03-17T01:00:33.637Z,53.37
2019-03-17T01:03:03.936Z,55.63
2019-03-17T01:05:34.107Z,53.43
2019-03-17T01:08:04.398Z,59.77
2019-03-17T01:10:34.690Z,47.47
2019-03-17T01:13:04.903Z,47.87
2019-03-17T01:15:35.143Z,53.57
2019-03-17T01:18:05.591Z,54.43
2019-03-17T01:20:35.861Z,60.33
2019-03-17T01:23:06.147Z,55.53
2019-03-17T01:25:36.427Z,50.90
2019-03-17T01:28:06.599Z,67.60
2019-03-17T01:30:36.899Z,62.37
2019-03-17T01:33:07.187Z,70.43
2019-03-17T01:35:37.512Z,66.43
2019-03-17T01:38:07.974Z,60.83
2019-03-17T01:40:38.215Z,70.87
2019-03-17T01:43:08.518Z,60.23
2019-03-17T01:45:38.856Z,67.93
2019-03-17T01:48:09.166Z,52.77
2019-03-17T01:50:39.435Z,54.33
2019-03-17T01:53:09.701Z,54.00
2019-03-17T01:55:40.039Z,52.10
2019-03-17T01:58:10.313Z,46.93
2019-03-17T02:00:42.131Z,48.93
2019-03-17T02:03:12.281Z,55.00
2019-03-17T02:05:42.607Z,61.60
2019-03-17T02:08:12.995Z,65.77
2019-03-17T02:10:43.408Z,54.40
2019-03-17T02:13:13.679Z,57.50
2019-03-17T02:15:43.970Z,58.40
2019-03-17T02:18:14.235Z,66.27
2019-03-17T02:20:44.600Z,75.73
2019-03-17T02:23:14.911Z,48.80
2019-03-17T02:25:45.176Z,61.60
2019-03-17T02:28:15.432Z,53.70
2019-03-17T02:30:45.700Z,55.93
2019-03-17T02:33:15.916Z,52.63
2019-03-17T02:35:46.207Z,52.30
2019-03-17T02:38:16.580Z,52.63
2019-03-17T02:40:46.840Z,60.73
2019-03-17T02:43:17.048Z,64.33
2019-03-17T02:45:47.334Z,55.97
2019-03-17T02:48:17.606Z,51.37
2019-03-17T02:50:47.790Z,45.83
2019-03-17T02:53:17.988Z,50.77
2019-03-17T02:55:48.265Z,53.93
2019-03-17T02:58:18.595Z,50.57
2019-03-17T03:00:49.872Z,47.07
2019-03-17T03:03:20.164Z,53.93
2019-03-17T03:05:55.404Z,54.73
2019-03-17T03:08:22.489Z,53.10
2019-03-17T03:10:52.754Z,52.50
2019-03-17T03:13:22.971Z,49.50
2019-03-17T03:15:53.273Z,50.47
2019-03-17T03:18:23.538Z,48.37
2019-03-17T03:20:53.904Z,51.00
2019-03-17T03:23:24.215Z,51.97
2019-03-17T03:25:54.467Z,42.87
2019-03-17T03:28:24.737Z,48.33
2019-03-17T03:30:55.215Z,45.93
2019-03-17T03:33:25.452Z,44.70
2019-03-17T03:36:10.147Z,46.13
2019-03-17T03:38:27.611Z,49.00
2019-03-17T03:40:57.822Z,44.73
2019-03-17T03:43:28.067Z,40.93
2019-03-17T03:45:58.412Z,50.27
2019-03-17T03:48:28.731Z,52.00
2019-03-17T03:50:58.871Z,46.87
2019-03-17T03:53:29.127Z,67.13
2019-03-17T03:55:59.415Z,65.97
2019-03-17T03:58:29.645Z,50.40
2019-03-17T04:00:59.933Z,48.20
2019-03-17T04:03:31.296Z,52.50
2019-03-17T04:06:01.522Z,54.63
2019-03-17T04:08:31.795Z,70.80
2019-03-17T04:11:02.057Z,68.30
2019-03-17T04:13:32.289Z,57.10
2019-03-17T04:16:02.564Z,52.27
2019-03-17T04:18:32.799Z,47.53
2019-03-17T04:21:02.971Z,47.73
2019-03-17T04:23:33.345Z,48.03
2019-03-17T04:26:05.687Z,35.67
2019-03-17T04:28:36.041Z,37.00
2019-03-17T04:31:09.513Z,33.07
2019-03-17T04:33:39.883Z,40.63
2019-03-17T04:36:10.115Z,39.30
2019-03-17T04:38:43.711Z,35.83
2019-03-17T04:41:12.602Z,35.47
2019-03-17T04:43:42.972Z,36.90
2019-03-17T04:46:13.460Z,40.60
2019-03-17T04:48:43.615Z,43.73
2019-03-17T04:51:13.913Z,46.67
2019-03-17T04:53:44.268Z,44.83
2019-03-17T04:56:14.551Z,44.73
2019-03-17T04:58:44.734Z,41.97
2019-03-17T05:01:15.052Z,41.37
2019-03-17T05:03:45.313Z,44.83
2019-03-17T05:06:16.559Z,38.50
2019-03-17T05:08:46.837Z,33.33
2019-03-17T05:11:17.070Z,34.17
2019-03-17T05:13:47.308Z,35.23
2019-03-17T05:16:17.620Z,36.27
2019-03-17T05:18:47.875Z,38.63
2019-03-17T05:21:18.175Z,33.73
2019-03-17T05:23:48.441Z,32.37
2019-03-17T05:26:18.777Z,33.17
2019-03-17T05:28:49.064Z,37.30
2019-03-17T05:31:19.325Z,33.20
2019-03-17T05:33:49.587Z,35.43
2019-03-17T05:36:19.824Z,36.33
2019-03-17T05:38:50.119Z,34.80
2019-03-17T05:41:20.515Z,37.17
2019-03-17T05:43:50.779Z,36.87
2019-03-17T05:46:21.798Z,36.10
2019-03-17T05:48:52.525Z,32.83
2019-03-17T05:51:23.204Z,35.37
2019-03-17T05:53:53.560Z,48.17
2019-03-17T05:56:24.092Z,44.33
2019-03-17T05:58:54.381Z,46.40
2019-03-17T06:01:26.073Z,43.43
2019-03-17T06:03:56.666Z,45.87
2019-03-17T06:06:27.947Z,43.43
2019-03-17T06:09:01.243Z,33.43
2019-03-17T06:11:34.473Z,38.77
2019-03-17T06:14:04.973Z,42.57
2019-03-17T06:16:35.244Z,36.73
2019-03-17T06:19:05.462Z,43.63
2019-03-17T06:21:35.828Z,36.70
2019-03-17T06:24:05.984Z,39.47
2019-03-17T06:26:36.234Z,39.00
2019-03-17T06:29:06.532Z,41.60
2019-03-17T06:31:36.916Z,37.37
2019-03-17T06:34:07.178Z,38.63
2019-03-17T06:36:37.509Z,40.03
2019-03-17T06:39:08.751Z,37.83
2019-03-17T06:41:38.971Z,33.97
2019-03-17T06:44:09.280Z,32.90
2019-03-17T06:46:39.539Z,31.20
2019-03-17T06:49:09.819Z,31.17
2019-03-17T06:51:40.103Z,33.07
2019-03-17T06:54:10.373Z,33.97
2019-03-17T06:56:40.622Z,29.17
2019-03-17T06:59:11.089Z,38.17
2019-03-17T07:01:41.346Z,29.13
2019-03-17T07:04:11.628Z,29.53
2019-03-17T07:06:41.983Z,27.00
2019-03-17T07:09:13.363Z,28.20
2019-03-17T07:11:43.613Z,30.93
2019-03-17T07:14:13.976Z,29.67
2019-03-17T07:16:44.303Z,33.77
2019-03-17T07:19:21.846Z,35.30
2019-03-17T07:21:52.047Z,26.43
2019-03-17T07:24:22.281Z,27.43
2019-03-17T07:26:55.558Z,28.93
2019-03-17T07:29:25.752Z,30.70
2019-03-17T07:31:56.003Z,31.07
2019-03-17T07:34:26.379Z,32.13
2019-03-17T07:36:56.798Z,34.83
2019-03-17T07:39:27.062Z,35.83
2019-03-17T07:41:57.468Z,36.20
2019-03-17T07:44:27.909Z,35.37
2019-03-17T07:46:58.161Z,38.30
2019-03-17T07:49:28.233Z,34.80
2019-03-17T07:51:58.470Z,34.67
2019-03-17T07:54:28.732Z,33.77
2019-03-17T07:56:58.985Z,34.53
2019-03-17T07:59:29.317Z,36.73
2019-03-17T08:01:59.591Z,36.83
2019-03-17T08:04:41.600Z,37.67
2019-03-17T08:07:01.745Z,40.17
2019-03-17T08:09:31.973Z,43.97
2019-03-17T08:12:03.272Z,47.87
2019-03-17T08:14:33.504Z,54.63
2019-03-17T08:17:03.784Z,51.40
2019-03-17T08:19:34.164Z,49.57
2019-03-17T08:22:04.407Z,47.73
2019-03-17T08:24:34.603Z,46.10
2019-03-17T08:27:04.987Z,45.33
2019-03-17T08:29:35.304Z,46.50
2019-03-17T08:32:05.655Z,45.83
2019-03-17T08:34:35.972Z,42.23
2019-03-17T08:37:06.335Z,39.73
2019-03-17T08:39:36.590Z,40.47
2019-03-17T08:42:06.942Z,40.23
2019-03-17T08:44:37.319Z,42.27
2019-03-17T08:47:07.555Z,46.57
2019-03-17T08:49:37.854Z,46.83
2019-03-17T08:52:08.087Z,48.23
2019-03-17T08:54:38.316Z,46.70
2019-03-17T08:57:08.606Z,46.40
2019-03-17T08:59:38.867Z,45.77
2019-03-17T09:02:09.049Z,44.93
2019-03-17T09:04:39.340Z,46.23
2019-03-17T09:07:09.636Z,47.50
2019-03-17T09:09:39.855Z,47.47
2019-03-17T09:12:10.422Z,45.50
2019-03-17T09:14:41.779Z,43.97
2019-03-17T09:17:14.524Z,44.27
2019-03-17T09:19:43.343Z,42.17
2019-03-17T09:22:13.284Z,44.53
2019-03-17T09:24:43.267Z,44.47
2019-03-17T09:27:13.288Z,43.70
2019-03-17T09:29:43.296Z,41.73
2019-03-17T09:32:13.294Z,42.37
2019-03-17T09:34:43.287Z,43.60
2019-03-17T09:37:13.239Z,40.70
2019-03-17T09:39:43.176Z,44.57
2019-03-17T09:42:13.164Z,45.57
2019-03-17T09:44:44.320Z,44.17
2019-03-17T09:47:14.451Z,45.60
2019-03-17T09:49:47.014Z,44.47
2019-03-17T09:52:18.770Z,43.33
2019-03-17T09:54:50.210Z,44.00
2019-03-17T09:57:21.728Z,43.53
2019-03-17T09:59:51.691Z,45.83
2019-03-17T10:02:21.718Z,44.73
2019-03-17T10:04:51.666Z,44.70
2019-03-17T10:07:21.625Z,46.03
2019-03-17T10:09:51.662Z,46.77
2019-03-17T10:12:21.616Z,50.93
2019-03-17T10:14:52.507Z,50.83
2019-03-17T10:17:22.524Z,56.00
2019-03-17T10:19:52.480Z,59.03
2019-03-17T10:22:22.427Z,57.57
2019-03-17T10:24:52.450Z,60.90
2019-03-17T10:27:22.417Z,60.17
2019-03-17T10:29:52.344Z,59.63
2019-03-17T10:32:22.347Z,59.83
2019-03-17T10:34:53.353Z,61.70
2019-03-17T10:37:23.367Z,59.90
2019-03-17T10:39:53.811Z,59.00
2019-03-17T10:42:23.799Z,55.70
2019-03-17T10:44:55.010Z,53.87
2019-03-17T10:47:26.043Z,52.30
2019-03-17T10:49:55.987Z,52.03
2019-03-17T10:52:25.940Z,51.93
2019-03-17T10:54:55.949Z,53.60
2019-03-17T10:57:25.886Z,54.03
2019-03-17T10:59:55.868Z,55.97
2019-03-17T11:02:25.991Z,54.90
2019-03-17T11:04:55.955Z,54.30
2019-03-17T11:07:25.913Z,51.53
2019-03-17T11:09:55.904Z,54.13
2019-03-17T11:12:25.860Z,55.60
2019-03-17T11:14:55.808Z,55.30
2019-03-17T11:17:25.867Z,49.63
2019-03-17T11:19:55.898Z,49.90
2019-03-17T11:22:25.864Z,54.77
2019-03-17T11:24:55.875Z,61.47
2019-03-17T11:27:25.795Z,57.77
2019-03-17T11:29:56.105Z,38.67
2019-03-17T11:32:26.408Z,41.23
2019-03-17T11:34:56.844Z,44.43
2019-03-17T11:37:27.141Z,44.93
2019-03-17T11:39:57.509Z,43.00
2019-03-17T11:42:27.781Z,36.20
2019-03-17T11:44:58.078Z,42.37
2019-03-17T11:47:28.580Z,43.37
2019-03-17T11:49:58.819Z,41.50
2019-03-17T11:52:29.058Z,36.17
2019-03-17T11:54:59.153Z,35.30
2019-03-17T11:57:29.190Z,41.27
2019-03-17T12:00:00.046Z,37.30
2019-03-17T12:02:30.275Z,38.80
2019-03-17T12:05:00.369Z,49.53
2019-03-17T12:07:30.428Z,46.30
2019-03-17T12:10:00.501Z,44.30
2019-03-17T12:12:30.435Z,43.67
2019-03-17T12:15:00.749Z,47.50
2019-03-17T12:17:31.157Z,44.13
2019-03-17T12:20:02.863Z,44.83
2019-03-17T12:22:32.807Z,48.53
2019-03-17T12:25:02.980Z,47.40
2019-03-17T12:27:32.942Z,48.87
2019-03-17T12:30:02.904Z,48.73
2019-03-17T12:32:33.000Z,46.17
2019-03-17T12:35:02.954Z,45.50
2019-03-17T12:37:32.899Z,38.10
2019-03-17T12:40:03.431Z,40.23
2019-03-17T12:42:33.667Z,47.10
2019-03-17T12:45:03.593Z,45.17
2019-03-17T12:47:33.606Z,39.17
2019-03-17T12:50:03.662Z,39.47
2019-03-17T12:52:33.629Z,39.97
2019-03-17T12:55:03.627Z,39.93
2019-03-17T12:57:33.620Z,35.07
2019-03-17T13:00:03.761Z,37.23
2019-03-17T13:02:33.750Z,35.67
2019-03-17T13:05:03.697Z,33.33
2019-03-17T13:07:33.764Z,30.37
2019-03-17T13:10:15.192Z,32.10
2019-03-17T13:12:35.645Z,31.63
2019-03-17T13:15:06.261Z,31.57
2019-03-17T13:17:36.592Z,31.30
2019-03-17T13:20:08.352Z,29.93
2019-03-17T13:22:38.804Z,28.20
2019-03-17T13:25:09.528Z,28.47
2019-03-17T13:27:39.789Z,30.30
2019-03-17T13:30:11.240Z,28.67
2019-03-17T13:32:41.315Z,27.77
2019-03-17T13:35:11.726Z,27.97
2019-03-17T13:37:41.994Z,28.20
2019-03-17T13:40:12.897Z,32.40
2019-03-17T13:42:42.974Z,33.73
2019-03-17T13:45:13.568Z,32.37
2019-03-17T13:47:43.814Z,30.97
2019-03-17T13:50:15.207Z,33.93
2019-03-17T13:52:45.653Z,33.63
2019-03-17T13:55:15.937Z,34.30
2019-03-17T13:57:46.395Z,34.63
2019-03-17T14:00:17.057Z,34.47
2019-03-17T14:02:47.306Z,33.57
2019-03-17T14:05:17.661Z,31.53
2019-03-17T14:07:48.054Z,31.90
2019-03-17T14:10:18.388Z,34.50
2019-03-17T14:12:48.831Z,32.33
2019-03-17T14:15:19.200Z,33.07
2019-03-17T14:17:49.445Z,32.00
2019-03-17T14:20:20.846Z,32.37
2019-03-17T14:22:51.954Z,34.73
2019-03-17T14:25:27.584Z,34.83
2019-03-17T14:27:57.992Z,34.00
2019-03-17T14:30:28.269Z,34.40
2019-03-17T14:32:59.314Z,33.43
2019-03-17T14:35:29.689Z,34.93
2019-03-17T14:37:59.872Z,33.73
2019-03-17T14:40:30.120Z,33.87
2019-03-17T14:43:00.487Z,34.37
2019-03-17T14:45:30.778Z,34.33
2019-03-17T14:48:00.984Z,31.87
2019-03-17T14:50:31.264Z,32.97
2019-03-17T14:53:01.527Z,30.17
2019-03-17T14:55:31.777Z,33.80
2019-03-17T14:58:02.231Z,31.33
2019-03-17T15:00:32.548Z,31.07
2019-03-17T15:03:02.823Z,30.97
2019-03-17T15:05:33.126Z,32.13
2019-03-17T15:08:03.348Z,29.80
2019-03-17T15:10:33.567Z,35.27
2019-03-17T15:13:03.838Z,35.30
2019-03-17T15:15:34.156Z,34.07
2019-03-17T15:18:04.380Z,32.90
2019-03-17T15:20:34.938Z,33.53
2019-03-17T15:23:05.210Z,35.07
2019-03-17T15:25:35.431Z,46.70
2019-03-17T15:28:05.994Z,63.50
2019-03-17T15:30:36.194Z,44.23
2019-03-17T15:33:06.498Z,35.87
2019-03-17T15:35:36.750Z,37.60
2019-03-17T15:38:07.046Z,36.77
2019-03-17T15:40:37.278Z,36.97
2019-03-17T15:43:07.560Z,39.20
2019-03-17T15:45:38.173Z,38.43
2019-03-17T15:48:08.415Z,39.53
2019-03-17T15:50:40.076Z,37.57
2019-03-17T15:53:10.378Z,39.80
2019-03-17T15:55:40.798Z,39.53
2019-03-17T15:58:11.131Z,38.87
2019-03-17T16:00:41.141Z,41.23
2019-03-17T16:03:11.291Z,40.50
2019-03-17T16:05:41.544Z,38.40
2019-03-17T16:08:11.743Z,37.77
2019-03-17T16:10:42.081Z,49.67
2019-03-17T16:13:12.550Z,51.30
2019-03-17T16:15:42.874Z,44.73
2019-03-17T16:18:13.058Z,47.43
2019-03-17T16:20:43.365Z,42.87
2019-03-17T16:23:13.504Z,45.27
2019-03-17T16:25:43.744Z,47.33
2019-03-17T16:28:14.696Z,48.07
2019-03-17T16:30:45.837Z,45.33
2019-03-17T16:33:16.790Z,48.50
2019-03-17T16:35:48.269Z,48.13
2019-03-17T16:38:18.801Z,48.27
2019-03-17T16:40:53.135Z,46.87
2019-03-17T16:43:23.770Z,46.73
2019-03-17T16:45:54.954Z,45.20
2019-03-17T16:48:26.034Z,47.83
2019-03-17T16:50:56.822Z,44.93
2019-03-17T16:53:27.315Z,47.57
2019-03-17T16:55:57.666Z,45.90
2019-03-17T16:58:28.110Z,44.97
2019-03-17T17:00:58.359Z,45.87
2019-03-17T17:03:29.175Z,45.50
2019-03-17T17:05:59.559Z,48.10
2019-03-17T17:08:29.870Z,47.73
2019-03-17T17:11:00.695Z,55.80
2019-03-17T17:13:31.135Z,53.50
2019-03-17T17:16:01.363Z,52.63
2019-03-17T17:18:38.375Z,52.43
2019-03-17T17:21:09.174Z,49.97
2019-03-17T17:23:39.884Z,50.77
2019-03-17T17:26:10.123Z,50.67
2019-03-17T17:28:46.731Z,57.43
2019-03-17T17:31:18.375Z,53.57
2019-03-17T17:33:49.940Z,54.23
2019-03-17T17:36:20.566Z,50.40
2019-03-17T17:39:00.208Z,52.20
2019-03-17T17:41:31.247Z,54.27
2019-03-17T17:44:01.516Z,56.40
2019-03-17T17:46:31.721Z,58.80
2019-03-17T17:49:02.036Z,61.10
2019-03-17T17:51:32.314Z,64.97
2019-03-17T17:54:02.592Z,69.13
2019-03-17T17:56:32.916Z,53.53
2019-03-17T17:59:03.168Z,45.93
2019-03-17T18:01:33.395Z,47.50
2019-03-17T18:04:03.851Z,45.20
2019-03-17T18:06:34.122Z,46.30
2019-03-17T18:09:05.951Z,40.03
2019-03-17T18:11:36.267Z,38.60
2019-03-17T18:14:06.680Z,40.03
2019-03-17T18:16:37.238Z,43.47
2019-03-17T18:19:07.613Z,45.23
2019-03-17T18:21:37.880Z,39.77
2019-03-17T18:24:08.815Z,41.70
2019-03-17T18:26:39.583Z,41.43
2019-03-17T18:29:11.506Z,42.20
2019-03-17T18:31:44.359Z,43.67
2019-03-17T18:34:14.865Z,42.27
2019-03-17T18:36:46.850Z,41.10
2019-03-17T18:39:17.215Z,40.57
2019-03-17T18:41:48.268Z,41.37
2019-03-17T18:44:19.048Z,42.33
2019-03-17T18:46:49.898Z,53.43
2019-03-17T18:49:20.352Z,45.43
2019-03-17T18:51:52.464Z,41.90
2019-03-17T18:54:24.860Z,41.80
2019-03-17T18:56:55.851Z,45.30
2019-03-17T18:59:26.026Z,53.73
2019-03-17T19:01:56.481Z,52.53
2019-03-17T19:04:28.315Z,50.73
2019-03-17T19:07:00.246Z,55.97
2019-03-17T19:09:32.152Z,75.43
2019-03-17T19:12:02.897Z,50.83
2019-03-17T19:14:35.308Z,51.83
2019-03-17T19:17:07.296Z,48.50
2019-03-17T19:19:37.581Z,46.63
2019-03-17T19:22:08.080Z,45.20
2019-03-17T19:24:38.288Z,50.67
2019-03-17T19:27:08.517Z,49.07
2019-03-17T19:29:38.748Z,48.33
2019-03-17T19:32:11.323Z,49.27
2019-03-17T19:34:44.083Z,45.90
2019-03-17T19:37:14.368Z,48.50
2019-03-17T19:39:44.714Z,46.77
2019-03-17T19:42:14.994Z,44.67
2019-03-17T19:44:45.383Z,51.87
2019-03-17T19:47:15.519Z,57.20
2019-03-17T19:49:45.719Z,55.80
2019-03-17T19:52:16.051Z,50.10
2019-03-17T19:54:46.299Z,49.10
2019-03-17T19:57:16.588Z,49.83
2019-03-17T19:59:46.866Z,45.80
2019-03-17T20:02:17.172Z,43.00
2019-03-17T20:04:47.562Z,48.03
2019-03-17T20:07:17.839Z,49.23
2019-03-17T20:09:48.110Z,47.23
2019-03-17T20:12:18.367Z,48.30
2019-03-17T20:14:48.635Z,53.17
2019-03-17T20:17:18.879Z,52.93
2019-03-17T20:19:49.086Z,51.00
2019-03-17T20:22:19.412Z,51.90
2019-03-17T20:24:49.670Z,53.30
2019-03-17T20:27:19.862Z,51.13
2019-03-17T20:29:50.163Z,49.90
2019-03-17T20:32:20.444Z,46.27
2019-03-17T20:34:50.766Z,46.83
2019-03-17T20:37:21.222Z,48.00
2019-03-17T20:39:53.991Z,51.37
2019-03-17T20:42:23.406Z,51.70
2019-03-17T20:44:53.891Z,52.53
2019-03-17T20:47:24.130Z,55.93
2019-03-17T20:49:54.350Z,51.77
2019-03-17T20:52:24.607Z,53.77
2019-03-17T20:54:54.877Z,52.00
2019-03-17T20:57:25.107Z,50.37
2019-03-17T20:59:55.669Z,50.00
2019-03-17T21:02:25.919Z,48.30
2019-03-17T21:04:56.303Z,51.27
2019-03-17T21:07:26.673Z,52.33
2019-03-17T21:09:56.927Z,51.17
2019-03-17T21:12:27.169Z,49.87
2019-03-17T21:14:57.510Z,48.40
2019-03-17T21:17:27.791Z,50.27
2019-03-17T21:19:58.020Z,50.80
2019-03-17T21:22:28.580Z,56.33
2019-03-17T21:24:58.836Z,52.77
2019-03-17T21:27:29.126Z,52.03
2019-03-17T21:29:59.459Z,51.77
2019-03-17T21:32:29.788Z,52.23
2019-03-17T21:35:00.023Z,54.70
2019-03-17T21:37:30.313Z,53.00
2019-03-17T21:40:01.607Z,52.53
2019-03-17T21:42:31.852Z,52.30
2019-03-17T21:45:02.244Z,49.77
2019-03-17T21:47:32.466Z,54.83
2019-03-17T21:50:02.681Z,58.57
2019-03-17T21:52:32.991Z,61.30
2019-03-17T21:55:03.259Z,57.57
2019-03-17T21:57:33.359Z,53.27
2019-03-17T22:00:03.629Z,63.77
2019-03-17T22:02:33.924Z,59.67
2019-03-17T22:05:04.268Z,46.97
2019-03-17T22:07:34.640Z,42.63
2019-03-17T22:10:06.191Z,40.67
2019-03-17T22:12:36.446Z,40.40
2019-03-17T22:15:06.836Z,38.00
2019-03-17T22:17:37.256Z,36.83
2019-03-17T22:20:07.631Z,33.67
2019-03-17T22:22:37.899Z,35.10
2019-03-17T22:25:08.356Z,33.67
2019-03-17T22:27:38.587Z,33.73
2019-03-17T22:30:09.916Z,34.33
2019-03-17T22:32:40.162Z,33.53
2019-03-17T22:35:10.670Z,33.63
2019-03-17T22:37:40.935Z,29.87
2019-03-17T22:40:12.358Z,28.77
2019-03-17T22:42:42.664Z,28.50
2019-03-17T22:45:13.279Z,34.13
2019-03-17T22:47:43.516Z,33.00
2019-03-17T22:50:13.839Z,36.03
2019-03-17T22:52:44.135Z,32.10
2019-03-17T22:55:14.575Z,30.63
2019-03-17T22:57:44.828Z,32.87
2019-03-17T23:00:17.744Z,34.23
2019-03-17T23:02:48.029Z,33.27
2019-03-17T23:05:18.354Z,31.10
2019-03-17T23:07:48.612Z,30.03
2019-03-17T23:10:18.868Z,30.90
2019-03-17T23:12:49.128Z,31.27
2019-03-17T23:15:20.319Z,33.30
2019-03-17T23:17:50.576Z,33.90
2019-03-17T23:20:20.811Z,32.07
2019-03-17T23:22:51.331Z,31.90
2019-03-17T23:25:22.246Z,32.60
2019-03-17T23:27:52.608Z,32.07
2019-03-17T23:30:22.955Z,31.77
2019-03-17T23:32:53.619Z,30.03
2019-03-17T23:35:25.190Z,31.73
2019-03-17T23:37:55.818Z,29.90
2019-03-17T23:40:31.085Z,29.97
2019-03-17T23:43:01.645Z,33.80
2019-03-17T23:45:31.990Z,35.70
2019-03-17T23:48:02.251Z,34.23
2019-03-17T23:50:32.485Z,33.23
2019-03-17T23:53:02.671Z,33.80
2019-03-17T23:55:32.911Z,35.17
2019-03-17T23:58:03.197Z,34.73
